Time;durP1;ratioP1;P1;durP2;ratioP2;P2;SDS_P1;SDS_P2;PMS_P1;PMS_P2;Temp;Humidity;BMP_temperature;BMP_pressure;BME280_temperature;BME280_humidity;BME280_pressure;Samples;Min_cycle;Max_cycle;Signal;HPM_P1;HPM_P2
2023/09/15 00:01:33;;;;;;;12.48;11.05;;;;;;;;;;4999828;28;20747;-72
2023/09/15 00:04:00;;;;;;;13.70;12.32;;;;;;;;;;5003315;28;20038;-73
2023/09/15 00:06:26;;;;;;;13.88;11.80;;;;;;;;;;5001328;28;20539;-72
2023/09/15 00:08:51;;;;;;;15.68;12.68;;;;;;;;;;5003401;28;20034;-72
2023/09/15 00:11:17;;;;;;;12.70;11.50;;;;;;;;;;4998648;28;20110;-72
2023/09/15 00:13:44;;;;;;;12.95;11.52;;;;;;;;;;4998815;28;20045;-72
2023/09/15 00:16:10;;;;;;;14.15;11.55;;;;;;;;;;5004370;28;20034;-73
2023/09/15 00:18:54;;;;;;;13.05;11.52;;;;;;;;;;4998761;28;21685;-72
2023/09/15 00:21:20;;;;;;;13.80;12.35;;;;;;;;;;5000662;28;20085;-72
2023/09/15 00:23:45;;;;;;;13.95;12.18;;;;;;;;;;5005309;28;20086;-72
2023/09/15 00:26:11;;;;;;;13.23;11.93;;;;;;;;;;5001797;28;20061;-72
2023/09/15 00:28:36;;;;;;;12.77;11.68;;;;;;;;;;5003618;28;20120;-72
2023/09/15 00:31:02;;;;;;;14.43;12.20;;;;;;;;;;4997031;28;20034;-72
2023/09/15 00:33:28;;;;;;;15.60;12.30;;;;;;;;;;5002102;28;20517;-72
2023/09/15 00:35:53;;;;;;;15.32;12.30;;;;;;;;;;5000769;28;20632;-73
2023/09/15 00:38:21;;;;;;;13.77;12.50;;;;;;;;;;5001263;28;20033;-72
2023/09/15 00:40:47;;;;;;;14.25;12.75;;;;;;;;;;4995043;28;20096;-72
2023/09/15 00:43:14;;;;;;;14.00;12.55;;;;;;;;;;5017850;28;20034;-72
2023/09/15 00:45:40;;;;;;;13.77;12.32;;;;;;;;;;4997157;28;20044;-72
2023/09/15 00:48:07;;;;;;;13.15;11.90;;;;;;;;;;4998020;28;20034;-72
2023/09/15 00:50:33;;;;;;;13.88;12.57;;;;;;;;;;4979652;28;20041;-72
2023/09/15 00:53:05;;;;;;;13.07;11.77;;;;;;;;;;5017340;28;20054;-72
2023/09/15 00:55:33;;;;;;;13.20;11.93;;;;;;;;;;4997267;28;20524;-72
2023/09/15 00:58:02;;;;;;;13.05;11.75;;;;;;;;;;5001085;28;20379;-72
2023/09/15 01:00:28;;;;;;;13.55;12.07;;;;;;;;;;4982117;28;20544;-72
2023/09/15 01:02:54;;;;;;;13.90;12.57;;;;;;;;;;5002004;28;20564;-72
2023/09/15 01:05:24;;;;;;;13.73;12.38;;;;;;;;;;5009173;28;20026;-72
2023/09/15 01:07:52;;;;;;;14.25;12.65;;;;;;;;;;5003407;28;20046;-72
2023/09/15 01:10:22;;;;;;;14.40;12.32;;;;;;;;;;5003235;28;20046;-72
2023/09/15 01:12:49;;;;;;;13.32;12.15;;;;;;;;;;5016623;28;20077;-72
2023/09/15 01:15:16;;;;;;;14.75;12.40;;;;;;;;;;5014378;28;20100;-72
2023/09/15 01:18:19;;;;;;;13.02;11.82;;;;;;;;;;4997798;28;20117;-72
2023/09/15 01:21:04;;;;;;;13.63;12.20;;;;;;;;;;4997568;28;20045;-72
2023/09/15 01:24:07;;;;;;;13.05;11.90;;;;;;;;;;5013987;28;20033;-72
2023/09/15 01:27:05;;;;;;;16.00;12.95;;;;;;;;;;4978126;28;20157;-72
2023/09/15 01:30:05;;;;;;;13.18;11.98;;;;;;;;;;4999738;28;20034;-72
2023/09/15 01:32:33;;;;;;;14.05;12.73;;;;;;;;;;4959222;28;20043;-72
2023/09/15 01:35:04;;;;;;;13.33;12.17;;;;;;;;;;4944068;28;20758;-72
2023/09/15 01:37:29;;;;;;;14.45;13.05;;;;;;;;;;4944803;28;20310;-72
2023/09/15 01:39:55;;;;;;;13.50;12.20;;;;;;;;;;4953959;28;20034;-72
2023/09/15 01:42:21;;;;;;;13.93;12.25;;;;;;;;;;4958016;28;20142;-72
2023/09/15 01:44:46;;;;;;;13.60;12.30;;;;;;;;;;4957488;28;20038;-72
2023/09/15 01:47:17;;;;;;;15.98;12.32;;;;;;;;;;4934759;28;20415;-72
2023/09/15 01:49:43;;;;;;;14.70;12.82;;;;;;;;;;4962157;28;20038;-72
2023/09/15 01:52:10;;;;;;;14.85;12.80;;;;;;;;;;4946891;28;20057;-72
2023/09/15 01:54:36;;;;;;;13.75;12.45;;;;;;;;;;4943762;28;20126;-72
2023/09/15 01:57:02;;;;;;;13.70;12.50;;;;;;;;;;4955990;28;20122;-72
2023/09/15 01:59:27;;;;;;;13.85;12.45;;;;;;;;;;4943909;28;20085;-72
2023/09/15 02:01:54;;;;;;;14.15;12.68;;;;;;;;;;4944160;28;20061;-72
2023/09/15 02:04:19;;;;;;;13.82;12.40;;;;;;;;;;4944906;28;20046;-72
2023/09/15 02:06:45;;;;;;;14.15;12.70;;;;;;;;;;4943874;28;20602;-72
2023/09/15 02:09:14;;;;;;;14.52;12.80;;;;;;;;;;4997244;28;20052;-72
2023/09/15 02:11:41;;;;;;;15.68;13.57;;;;;;;;;;5001831;28;20052;-72
2023/09/15 02:14:07;;;;;;;15.82;12.88;;;;;;;;;;4982682;28;20593;-72
2023/09/15 02:16:33;;;;;;;15.07;13.50;;;;;;;;;;4996532;28;20046;-72
2023/09/15 02:18:59;;;;;;;15.45;13.73;;;;;;;;;;5013030;28;20041;-72
2023/09/15 02:21:25;;;;;;;14.77;13.15;;;;;;;;;;5000220;28;20097;-72
2023/09/15 02:23:51;;;;;;;16.83;14.48;;;;;;;;;;5014959;28;20105;-72
2023/09/15 02:26:17;;;;;;;16.77;14.82;;;;;;;;;;4994366;28;20171;-72
2023/09/15 02:28:42;;;;;;;19.55;14.30;;;;;;;;;;5000917;28;20038;-72
2023/09/15 02:31:08;;;;;;;15.70;13.93;;;;;;;;;;4990036;28;20033;-72
2023/09/15 02:33:35;;;;;;;17.45;14.07;;;;;;;;;;4999481;28;20042;-72
2023/09/15 02:36:01;;;;;;;16.67;14.48;;;;;;;;;;4997663;28;20033;-72
2023/09/15 02:38:27;;;;;;;18.20;13.95;;;;;;;;;;5009781;28;20037;-72
2023/09/15 02:40:52;;;;;;;18.55;14.38;;;;;;;;;;5001286;28;20033;-72
2023/09/15 02:43:18;;;;;;;15.55;13.82;;;;;;;;;;5015294;28;20042;-74
2023/09/15 02:45:44;;;;;;;14.82;13.30;;;;;;;;;;5015887;28;20030;-74
2023/09/15 02:48:09;;;;;;;15.32;13.82;;;;;;;;;;4998588;28;20038;-74
2023/09/15 02:50:41;;;;;;;15.68;14.05;;;;;;;;;;4996700;28;20029;-71
2023/09/15 02:53:06;;;;;;;15.93;14.32;;;;;;;;;;5016334;28;20034;-71
2023/09/15 02:55:32;;;;;;;17.00;13.15;;;;;;;;;;4997817;28;20036;-72
2023/09/15 02:57:57;;;;;;;17.10;12.52;;;;;;;;;;5011011;28;20038;-71
2023/09/15 03:00:23;;;;;;;15.02;13.02;;;;;;;;;;4997644;28;20149;-72
2023/09/15 03:02:51;;;;;;;15.30;13.35;;;;;;;;;;4999260;28;20046;-72
2023/09/15 03:05:20;;;;;;;15.68;13.77;;;;;;;;;;5011274;28;20064;-71
2023/09/15 03:07:45;;;;;;;17.25;13.50;;;;;;;;;;4975657;28;20138;-72
2023/09/15 03:10:13;;;;;;;15.07;13.57;;;;;;;;;;4994371;28;20038;-72
2023/09/15 03:12:39;;;;;;;14.50;13.00;;;;;;;;;;4994590;28;20092;-72
2023/09/15 03:15:08;;;;;;;15.90;14.18;;;;;;;;;;4992407;28;20037;-72
2023/09/15 03:17:37;;;;;;;18.95;14.35;;;;;;;;;;4964625;28;20038;-71
2023/09/15 03:20:13;;;;;;;17.10;13.65;;;;;;;;;;5010945;28;20042;-71
2023/09/15 03:22:40;;;;;;;16.58;14.77;;;;;;;;;;5008529;28;20045;-71
2023/09/15 03:25:06;;;;;;;18.40;14.77;;;;;;;;;;4985264;28;20062;-74
2023/09/15 03:27:32;;;;;;;18.27;14.07;;;;;;;;;;4994795;28;20036;-73
2023/09/15 03:29:58;;;;;;;15.63;14.13;;;;;;;;;;4996428;28;20042;-74
2023/09/15 03:32:23;;;;;;;15.20;13.32;;;;;;;;;;4993992;28;20564;-74
2023/09/15 03:34:49;;;;;;;19.08;13.77;;;;;;;;;;5015553;28;20155;-73
2023/09/15 03:37:16;;;;;;;15.30;13.80;;;;;;;;;;4999489;28;20125;-73
2023/09/15 03:39:43;;;;;;;16.38;14.15;;;;;;;;;;4990645;28;20121;-74
2023/09/15 03:42:09;;;;;;;17.02;14.20;;;;;;;;;;4993759;28;20145;-74
2023/09/15 03:44:34;;;;;;;19.13;14.32;;;;;;;;;;4994899;28;20088;-74
2023/09/15 03:47:00;;;;;;;15.20;13.73;;;;;;;;;;4992492;28;20038;-74
2023/09/15 03:49:26;;;;;;;15.73;13.82;;;;;;;;;;4989574;28;20038;-74
2023/09/15 03:51:52;;;;;;;15.00;13.70;;;;;;;;;;4995003;28;20034;-74
2023/09/15 03:54:18;;;;;;;15.52;13.98;;;;;;;;;;4999224;28;20464;-74
2023/09/15 03:56:44;;;;;;;17.30;14.25;;;;;;;;;;4997320;28;20041;-74
2023/09/15 03:59:09;;;;;;;15.23;13.82;;;;;;;;;;4987723;28;20038;-74
2023/09/15 04:01:35;;;;;;;15.93;14.10;;;;;;;;;;5003150;28;20113;-74
2023/09/15 04:04:02;;;;;;;15.57;13.98;;;;;;;;;;5000643;28;20057;-74
2023/09/15 04:06:28;;;;;;;15.73;13.55;;;;;;;;;;5009344;23;20048;-74
2023/09/15 04:08:55;;;;;;;16.45;14.75;;;;;;;;;;4998947;28;20042;-72
2023/09/15 04:11:21;;;;;;;16.35;14.63;;;;;;;;;;4985236;28;20053;-74
2023/09/15 04:13:46;;;;;;;15.77;14.18;;;;;;;;;;4986230;28;20085;-74
2023/09/15 04:16:12;;;;;;;17.75;14.95;;;;;;;;;;5002230;28;20030;-74
2023/09/15 04:18:37;;;;;;;16.42;14.70;;;;;;;;;;4979390;28;20085;-74
2023/09/15 04:21:04;;;;;;;20.08;14.52;;;;;;;;;;4988459;28;20101;-72
2023/09/15 04:23:30;;;;;;;19.85;15.23;;;;;;;;;;4998238;28;20150;-73
2023/09/15 04:25:57;;;;;;;18.52;14.98;;;;;;;;;;4998837;28;20113;-73
2023/09/15 04:28:23;;;;;;;18.63;15.10;;;;;;;;;;4996321;28;20039;-74
2023/09/15 04:30:49;;;;;;;23.85;15.38;;;;;;;;;;4996658;28;20045;-73
2023/09/15 04:33:15;;;;;;;22.92;16.63;;;;;;;;;;4996893;28;20078;-73
2023/09/15 04:35:41;;;;;;;22.05;17.05;;;;;;;;;;4997471;28;20055;-74
2023/09/15 04:38:07;;;;;;;26.35;16.55;;;;;;;;;;4973012;28;20055;-73
2023/09/15 04:40:33;;;;;;;22.05;16.77;;;;;;;;;;4997047;28;20126;-73
2023/09/15 04:42:59;;;;;;;18.55;16.17;;;;;;;;;;4999543;28;20085;-73
2023/09/15 04:45:27;;;;;;;21.15;16.63;;;;;;;;;;4997679;28;20039;-73
2023/09/15 04:47:53;;;;;;;18.05;15.65;;;;;;;;;;4996757;28;20141;-72
2023/09/15 04:50:22;;;;;;;16.08;14.45;;;;;;;;;;4997731;28;20042;-71
2023/09/15 04:52:48;;;;;;;20.15;15.65;;;;;;;;;;4981415;28;20827;-74
2023/09/15 04:55:15;;;;;;;17.88;14.63;;;;;;;;;;4995963;28;20046;-71
2023/09/15 04:57:41;;;;;;;16.85;15.15;;;;;;;;;;4996725;28;20042;-73
2023/09/15 05:00:12;;;;;;;19.60;14.48;;;;;;;;;;4997051;28;20046;-73
2023/09/15 05:02:44;;;;;;;18.65;14.57;;;;;;;;;;4976297;28;20046;-72
2023/09/15 05:05:10;;;;;;;19.80;15.48;;;;;;;;;;4978270;28;20042;-74
2023/09/15 05:07:36;;;;;;;18.60;15.07;;;;;;;;;;4994357;28;20043;-72
2023/09/15 05:10:02;;;;;;;19.38;15.98;;;;;;;;;;4978302;28;20034;-73
2023/09/15 05:12:30;;;;;;;21.38;15.98;;;;;;;;;;4997363;28;20138;-74
2023/09/15 05:14:55;;;;;;;22.75;15.95;;;;;;;;;;4993598;28;20399;-73
2023/09/15 05:17:22;;;;;;;18.83;16.15;;;;;;;;;;4993327;28;20126;-72
2023/09/15 05:19:49;;;;;;;18.65;16.50;;;;;;;;;;4997089;28;20396;-72
2023/09/15 05:22:15;;;;;;;20.63;16.23;;;;;;;;;;4994265;28;20039;-72
2023/09/15 05:24:41;;;;;;;21.42;16.92;;;;;;;;;;4977372;28;20121;-73
2023/09/15 05:27:06;;;;;;;19.38;16.67;;;;;;;;;;4997270;28;20125;-73
2023/09/15 05:29:32;;;;;;;18.95;16.10;;;;;;;;;;4978174;28;20038;-72
2023/09/15 05:31:58;;;;;;;20.48;15.77;;;;;;;;;;4994416;28;20030;-72
2023/09/15 05:34:23;;;;;;;19.70;15.68;;;;;;;;;;4992366;28;20459;-73
2023/09/15 05:36:49;;;;;;;18.98;15.77;;;;;;;;;;4977834;28;20052;-74
2023/09/15 05:39:15;;;;;;;19.48;14.70;;;;;;;;;;4975762;28;20573;-72
2023/09/15 05:41:41;;;;;;;25.23;15.30;;;;;;;;;;4976373;28;20038;-73
2023/09/15 05:44:06;;;;;;;17.15;14.90;;;;;;;;;;4981070;28;20049;-72
2023/09/15 05:46:32;;;;;;;19.10;14.98;;;;;;;;;;4974165;28;20038;-73
2023/09/15 05:48:57;;;;;;;16.45;14.75;;;;;;;;;;4977828;28;20149;-73
2023/09/15 05:51:23;;;;;;;21.40;15.85;;;;;;;;;;4974361;28;20080;-73
2023/09/15 05:53:49;;;;;;;15.80;14.18;;;;;;;;;;4978511;28;20084;-72
2023/09/15 05:56:14;;;;;;;16.17;14.20;;;;;;;;;;4976176;28;20037;-74
2023/09/15 05:58:41;;;;;;;18.77;13.85;;;;;;;;;;4976878;28;20116;-73
2023/09/15 06:01:06;;;;;;;15.95;14.15;;;;;;;;;;4973709;28;20150;-72
2023/09/15 06:03:32;;;;;;;16.42;14.65;;;;;;;;;;4975023;28;20524;-73
2023/09/15 06:05:58;;;;;;;16.80;14.32;;;;;;;;;;4979549;28;20137;-72
2023/09/15 06:08:23;;;;;;;17.05;15.10;;;;;;;;;;4973877;28;20357;-73
2023/09/15 06:10:49;;;;;;;18.80;14.57;;;;;;;;;;4999610;28;21097;-72
2023/09/15 06:13:15;;;;;;;16.92;14.13;;;;;;;;;;4971022;28;20512;-72
2023/09/15 06:15:41;;;;;;;16.45;14.80;;;;;;;;;;4977508;28;20041;-72
2023/09/15 06:18:07;;;;;;;21.70;15.15;;;;;;;;;;4975261;28;20042;-73
2023/09/15 06:20:33;;;;;;;19.73;15.77;;;;;;;;;;4976129;28;20035;-72
2023/09/15 06:23:02;;;;;;;19.48;14.43;;;;;;;;;;4979570;28;20038;-73
2023/09/15 06:25:30;;;;;;;18.33;15.07;;;;;;;;;;4978435;28;20481;-73
2023/09/15 06:27:57;;;;;;;21.83;15.82;;;;;;;;;;4974529;28;20407;-73
2023/09/15 06:30:23;;;;;;;23.35;15.52;;;;;;;;;;4995746;28;20046;-73
2023/09/15 06:32:48;;;;;;;18.05;14.73;;;;;;;;;;4984094;28;20061;-74
2023/09/15 06:35:14;;;;;;;20.08;15.20;;;;;;;;;;4985610;28;20042;-72
2023/09/15 06:37:40;;;;;;;18.75;15.00;;;;;;;;;;4988973;28;20072;-73
2023/09/15 06:40:07;;;;;;;17.00;14.38;;;;;;;;;;4984955;28;20041;-73
2023/09/15 06:42:32;;;;;;;15.80;14.25;;;;;;;;;;4978039;28;20061;-72
2023/09/15 06:44:58;;;;;;;16.92;15.10;;;;;;;;;;4997033;28;20328;-72
2023/09/15 06:47:23;;;;;;;19.30;14.68;;;;;;;;;;4973645;28;20031;-73
2023/09/15 06:49:49;;;;;;;16.30;14.57;;;;;;;;;;4976584;28;20125;-74
2023/09/15 06:52:18;;;;;;;19.00;14.23;;;;;;;;;;4975415;28;20153;-72
2023/09/15 06:54:44;;;;;;;15.80;14.20;;;;;;;;;;4970827;28;20046;-72
2023/09/15 06:57:10;;;;;;;14.27;12.77;;;;;;;;;;4979146;28;20039;-74
2023/09/15 06:59:35;;;;;;;13.43;12.18;;;;;;;;;;4976901;28;20129;-72
2023/09/15 07:02:02;;;;;;;15.20;13.65;;;;;;;;;;4978547;28;20073;-76
2023/09/15 07:04:31;;;;;;;13.68;12.38;;;;;;;;;;4974151;28;20063;-73
2023/09/15 07:06:57;;;;;;;13.30;12.20;;;;;;;;;;4975988;28;20483;-71
2023/09/15 07:09:24;;;;;;;12.98;11.88;;;;;;;;;;4975614;28;20034;-73
2023/09/15 07:11:49;;;;;;;12.57;11.43;;;;;;;;;;4978219;28;20097;-72
2023/09/15 07:14:15;;;;;;;12.70;11.50;;;;;;;;;;4978857;28;20500;-73
2023/09/15 07:16:43;;;;;;;13.80;12.18;;;;;;;;;;4978832;28;20081;-72
2023/09/15 07:19:08;;;;;;;16.58;12.70;;;;;;;;;;4980231;28;20639;-73
2023/09/15 07:21:37;;;;;;;12.98;11.68;;;;;;;;;;4972369;28;20081;-72
2023/09/15 07:24:04;;;;;;;16.90;12.32;;;;;;;;;;4976806;28;20117;-72
2023/09/15 07:26:29;;;;;;;14.90;12.15;;;;;;;;;;4975035;28;20084;-74
2023/09/15 07:28:55;;;;;;;11.95;10.95;;;;;;;;;;4985415;28;20042;-72
2023/09/15 07:31:20;;;;;;;12.63;10.95;;;;;;;;;;4979202;28;20038;-74
2023/09/15 07:33:47;;;;;;;13.55;10.43;;;;;;;;;;4980727;28;20411;-73
2023/09/15 07:36:13;;;;;;;11.88;10.85;;;;;;;;;;4978633;28;20116;-72
2023/09/15 07:38:38;;;;;;;12.48;11.15;;;;;;;;;;4981369;28;20443;-73
2023/09/15 07:41:04;;;;;;;11.25;10.35;;;;;;;;;;4977350;28;20038;-72
2023/09/15 07:43:29;;;;;;;11.93;10.60;;;;;;;;;;4979679;28;20113;-73
2023/09/15 07:45:55;;;;;;;13.73;10.88;;;;;;;;;;4985345;28;20085;-73
2023/09/15 07:48:24;;;;;;;11.95;10.82;;;;;;;;;;4985309;28;20046;-74
2023/09/15 07:50:53;;;;;;;14.05;11.35;;;;;;;;;;4968844;28;20685;-73
2023/09/15 07:53:26;;;;;;;11.90;10.80;;;;;;;;;;4988728;28;20038;-70
2023/09/15 07:55:52;;;;;;;13.25;9.98;;;;;;;;;;4987635;28;20403;-72
2023/09/15 07:58:17;;;;;;;11.95;10.05;;;;;;;;;;5003602;28;20042;-71
2023/09/15 08:00:43;;;;;;;12.00;9.90;;;;;;;;;;4988600;28;20542;-71
2023/09/15 08:03:09;;;;;;;12.13;9.70;;;;;;;;;;4987319;28;20042;-72
2023/09/15 08:05:34;;;;;;;11.48;10.30;;;;;;;;;;5002859;28;20038;-72
2023/09/15 08:08:01;;;;;;;12.18;9.88;;;;;;;;;;4985434;28;20085;-71
2023/09/15 08:10:31;;;;;;;13.38;9.30;;;;;;;;;;4987198;28;20058;-74
2023/09/15 08:12:57;;;;;;;11.82;10.23;;;;;;;;;;4989877;28;20088;-72
2023/09/15 08:15:23;;;;;;;11.50;9.60;;;;;;;;;;4983351;28;20037;-72
2023/09/15 08:17:49;;;;;;;10.55;9.65;;;;;;;;;;4987268;28;20038;-74
2023/09/15 08:20:15;;;;;;;12.02;10.10;;;;;;;;;;5002852;28;20130;-73
2023/09/15 08:22:41;;;;;;;11.25;10.25;;;;;;;;;;4986538;28;20380;-74
2023/09/15 08:25:12;;;;;;;11.15;10.02;;;;;;;;;;4969723;28;20130;-73
2023/09/15 08:27:38;;;;;;;11.07;9.98;;;;;;;;;;4972327;28;20038;-73
2023/09/15 08:30:05;;;;;;;10.18;9.27;;;;;;;;;;4985313;28;20031;-73
2023/09/15 08:32:31;;;;;;;10.93;9.52;;;;;;;;;;4980290;28;20070;-74
2023/09/15 08:34:58;;;;;;;11.30;9.80;;;;;;;;;;4979727;28;20030;-72
2023/09/15 08:37:24;;;;;;;10.73;8.85;;;;;;;;;;4983292;28;20041;-72
2023/09/15 08:39:50;;;;;;;11.05;9.85;;;;;;;;;;4980576;28;20133;-71
2023/09/15 08:42:23;;;;;;;10.10;9.23;;;;;;;;;;4980971;28;20133;-70
2023/09/15 08:44:50;;;;;;;10.32;9.32;;;;;;;;;;4982610;28;20046;-72
2023/09/15 08:47:18;;;;;;;10.82;9.80;;;;;;;;;;4982940;28;20536;-70
2023/09/15 08:49:45;;;;;;;10.77;9.13;;;;;;;;;;4984242;28;20041;-71
2023/09/15 08:52:13;;;;;;;9.93;8.93;;;;;;;;;;4984527;28;20034;-72
2023/09/15 08:54:38;;;;;;;10.95;8.48;;;;;;;;;;4986163;28;20041;-73
2023/09/15 08:57:04;;;;;;;9.73;8.15;;;;;;;;;;4984086;28;20042;-73
2023/09/15 08:59:31;;;;;;;9.23;8.43;;;;;;;;;;4983872;28;20125;-74
2023/09/15 09:01:57;;;;;;;10.38;8.57;;;;;;;;;;4984280;28;20061;-72
2023/09/15 09:04:23;;;;;;;10.30;9.40;;;;;;;;;;4981988;28;20034;-72
2023/09/15 09:06:48;;;;;;;10.55;9.48;;;;;;;;;;4977751;28;20490;-71
2023/09/15 09:09:15;;;;;;;11.43;8.80;;;;;;;;;;4982536;28;20805;-71
2023/09/15 09:11:40;;;;;;;10.20;8.93;;;;;;;;;;4980691;28;20038;-72
2023/09/15 09:14:11;;;;;;;14.50;8.80;;;;;;;;;;4982178;28;20072;-71
2023/09/15 09:16:42;;;;;;;9.45;8.50;;;;;;;;;;4979468;28;20908;-72
2023/09/15 09:19:08;;;;;;;9.15;8.25;;;;;;;;;;4981762;28;20085;-71
2023/09/15 09:21:34;;;;;;;8.52;7.75;;;;;;;;;;4981458;28;20663;-71
2023/09/15 09:24:00;;;;;;;10.25;9.25;;;;;;;;;;4982706;28;20088;-72
2023/09/15 09:26:26;;;;;;;9.68;8.63;;;;;;;;;;4988467;28;20064;-71
2023/09/15 09:28:57;;;;;;;9.70;8.80;;;;;;;;;;4985272;28;20057;-72
2023/09/15 09:31:26;;;;;;;13.48;9.32;;;;;;;;;;4983968;28;20046;-72
2023/09/15 09:33:52;;;;;;;11.98;8.77;;;;;;;;;;4979353;28;20053;-72
2023/09/15 09:36:18;;;;;;;10.00;9.05;;;;;;;;;;4979221;28;20046;-72
2023/09/15 09:38:47;;;;;;;10.68;9.07;;;;;;;;;;4982731;28;20034;-72
2023/09/15 09:41:15;;;;;;;10.52;9.27;;;;;;;;;;4982419;28;20038;-72
2023/09/15 09:43:46;;;;;;;10.82;9.82;;;;;;;;;;4999532;28;20053;-71
2023/09/15 09:46:17;;;;;;;11.23;9.52;;;;;;;;;;4991891;28;20026;-72
2023/09/15 09:48:44;;;;;;;10.68;8.65;;;;;;;;;;4988818;28;20034;-70
2023/09/15 09:51:11;;;;;;;11.95;8.95;;;;;;;;;;4986400;28;20297;-71
2023/09/15 09:53:37;;;;;;;9.77;8.70;;;;;;;;;;4984848;28;20042;-72
2023/09/15 09:56:06;;;;;;;9.77;8.77;;;;;;;;;;4984774;28;20093;-73
2023/09/15 09:58:35;;;;;;;9.90;9.00;;;;;;;;;;4988506;28;20049;-72
2023/09/15 10:01:04;;;;;;;12.13;8.93;;;;;;;;;;4985575;28;20500;-71
2023/09/15 10:03:30;;;;;;;8.32;7.47;;;;;;;;;;4988207;28;20034;-72
2023/09/15 10:05:57;;;;;;;8.90;8.20;;;;;;;;;;4981370;28;20611;-72
2023/09/15 10:08:22;;;;;;;9.98;8.93;;;;;;;;;;4985290;28;20049;-70
2023/09/15 10:10:50;;;;;;;9.68;8.52;;;;;;;;;;4988401;28;20033;-70
2023/09/15 10:13:16;;;;;;;10.68;8.45;;;;;;;;;;4985008;28;20668;-73
2023/09/15 10:15:44;;;;;;;10.75;8.52;;;;;;;;;;4984743;28;20042;-71
2023/09/15 10:18:14;;;;;;;9.88;9.02;;;;;;;;;;4985966;28;20030;-73
2023/09/15 10:20:41;;;;;;;9.40;8.50;;;;;;;;;;4981830;28;20080;-72
2023/09/15 10:23:08;;;;;;;9.35;8.50;;;;;;;;;;4984745;28;20037;-72
2023/09/15 10:25:52;;;;;;;9.15;8.32;;;;;;;;;;4981953;28;20038;-73
2023/09/15 10:28:19;;;;;;;9.63;8.25;;;;;;;;;;4982548;28;20660;-74
2023/09/15 10:30:46;;;;;;;9.27;8.32;;;;;;;;;;4982169;28;20489;-75
2023/09/15 10:33:12;;;;;;;8.80;7.97;;;;;;;;;;4982456;28;20799;-72
2023/09/15 10:35:43;;;;;;;10.95;8.52;;;;;;;;;;4985395;28;20050;-73
2023/09/15 10:38:09;;;;;;;8.75;8.02;;;;;;;;;;4981906;28;20083;-73
2023/09/15 10:40:53;;;;;;;8.55;7.85;;;;;;;;;;5000397;28;20069;-73
2023/09/15 10:43:19;;;;;;;9.52;7.78;;;;;;;;;;4959023;28;20064;-71
2023/09/15 10:45:57;;;;;;;8.10;7.40;;;;;;;;;;4982345;28;20038;-71
2023/09/15 10:48:42;;;;;;;8.73;7.50;;;;;;;;;;4976509;28;20038;-71
2023/09/15 10:51:09;;;;;;;8.77;8.07;;;;;;;;;;4978328;28;20293;-72
2023/09/15 10:53:43;;;;;;;8.95;8.10;;;;;;;;;;4978553;28;20042;-72
2023/09/15 10:56:09;;;;;;;8.23;7.53;;;;;;;;;;4977179;28;20049;-72
2023/09/15 10:58:36;;;;;;;8.35;7.65;;;;;;;;;;4978202;28;20030;-72
2023/09/15 11:01:03;;;;;;;8.30;7.50;;;;;;;;;;4978288;28;20428;-71
2023/09/15 11:03:29;;;;;;;8.52;7.72;;;;;;;;;;4977935;28;20112;-72
2023/09/15 11:05:55;;;;;;;9.02;8.20;;;;;;;;;;4978405;28;20030;-71
2023/09/15 11:08:23;;;;;;;8.68;8.07;;;;;;;;;;4979088;28;20050;-71
2023/09/15 11:10:57;;;;;;;8.32;7.80;;;;;;;;;;4979018;28;20065;-71
2023/09/15 11:13:23;;;;;;;8.88;8.00;;;;;;;;;;4977762;28;20030;-72
2023/09/15 11:15:49;;;;;;;8.25;7.65;;;;;;;;;;4978761;28;20422;-70
2023/09/15 11:18:14;;;;;;;8.13;7.53;;;;;;;;;;4980221;28;20686;-72
2023/09/15 11:20:40;;;;;;;8.70;7.88;;;;;;;;;;4976920;28;20826;-74
2023/09/15 11:23:06;;;;;;;8.40;7.80;;;;;;;;;;4977691;28;20048;-73
2023/09/15 11:25:33;;;;;;;8.45;7.80;;;;;;;;;;4962259;28;20065;-74
2023/09/15 11:28:00;;;;;;;8.30;7.70;;;;;;;;;;4978023;28;20069;-73
2023/09/15 11:30:26;;;;;;;7.85;7.35;;;;;;;;;;5007527;28;20039;-74
2023/09/15 11:32:54;;;;;;;8.63;7.93;;;;;;;;;;5004164;28;20030;-75
2023/09/15 11:35:22;;;;;;;8.63;7.82;;;;;;;;;;5004811;28;20027;-75
2023/09/15 11:37:48;;;;;;;8.50;7.78;;;;;;;;;;4999779;28;20042;-71
2023/09/15 11:40:23;;;;;;;8.73;7.93;;;;;;;;;;4994049;28;20030;-71
2023/09/15 11:42:56;;;;;;;8.63;7.90;;;;;;;;;;4982213;28;20031;-74
2023/09/15 11:45:27;;;;;;;8.07;7.38;;;;;;;;;;4980899;28;20043;-71
2023/09/15 11:47:57;;;;;;;8.45;7.55;;;;;;;;;;4998905;28;20096;-73
2023/09/15 11:50:24;;;;;;;7.93;7.32;;;;;;;;;;4979153;28;20039;-73
2023/09/15 11:52:51;;;;;;;8.60;8.00;;;;;;;;;;4983346;28;20026;-75
2023/09/15 11:55:21;;;;;;;8.70;7.97;;;;;;;;;;4979857;28;20125;-72
2023/09/15 11:57:47;;;;;;;8.55;7.85;;;;;;;;;;4977823;28;20442;-72
2023/09/15 12:00:20;;;;;;;8.60;8.10;;;;;;;;;;4998020;28;20042;-72
2023/09/15 12:02:47;;;;;;;9.65;8.95;;;;;;;;;;4979617;28;20039;-73
2023/09/15 12:05:18;;;;;;;9.73;8.82;;;;;;;;;;4979555;28;20046;-71
2023/09/15 12:07:44;;;;;;;9.38;8.68;;;;;;;;;;4978839;28;20042;-71
2023/09/15 12:10:14;;;;;;;9.65;9.05;;;;;;;;;;4980031;28;20069;-72
2023/09/15 12:12:40;;;;;;;9.40;8.70;;;;;;;;;;4980652;28;20584;-74
2023/09/15 12:15:07;;;;;;;9.15;8.45;;;;;;;;;;4990163;28;20483;-73
2023/09/15 12:17:34;;;;;;;10.00;9.30;;;;;;;;;;4982358;28;20026;-71
2023/09/15 12:20:03;;;;;;;9.98;9.27;;;;;;;;;;4981619;28;20034;-73
2023/09/15 12:22:38;;;;;;;9.65;8.95;;;;;;;;;;4979280;28;20034;-74
2023/09/15 12:25:05;;;;;;;10.05;9.25;;;;;;;;;;4978203;28;20034;-72
2023/09/15 12:27:32;;;;;;;9.98;9.18;;;;;;;;;;4982255;28;20496;-74
2023/09/15 12:30:05;;;;;;;11.63;9.05;;;;;;;;;;4984617;28;20043;-72
2023/09/15 12:32:32;;;;;;;9.30;8.68;;;;;;;;;;4987463;28;20243;-72
2023/09/15 12:34:59;;;;;;;10.57;9.77;;;;;;;;;;4983226;28;20026;-73
2023/09/15 12:37:31;;;;;;;10.27;9.50;;;;;;;;;;5003960;28;20042;-73
2023/09/15 12:39:58;;;;;;;11.10;10.00;;;;;;;;;;4981256;28;20049;-72
2023/09/15 12:42:23;;;;;;;10.55;9.75;;;;;;;;;;4983526;28;20039;-72
2023/09/15 12:44:49;;;;;;;10.18;9.48;;;;;;;;;;4981413;28;20055;-72
2023/09/15 12:47:16;;;;;;;10.20;9.50;;;;;;;;;;4987082;28;20034;-71
2023/09/15 12:49:42;;;;;;;10.25;9.55;;;;;;;;;;4985844;28;20058;-72
2023/09/15 12:52:09;;;;;;;10.07;9.38;;;;;;;;;;4982171;28;20499;-72
2023/09/15 12:54:35;;;;;;;9.75;8.98;;;;;;;;;;4996906;28;20801;-70
2023/09/15 12:57:04;;;;;;;10.88;10.07;;;;;;;;;;5001641;28;20049;-71
2023/09/15 12:59:31;;;;;;;10.82;10.02;;;;;;;;;;4982365;28;20129;-72
2023/09/15 13:01:56;;;;;;;11.20;10.18;;;;;;;;;;4980844;28;20042;-72
2023/09/15 13:04:24;;;;;;;10.05;9.35;;;;;;;;;;4997440;28;20046;-73
2023/09/15 13:06:50;;;;;;;10.50;9.63;;;;;;;;;;4981120;28;20066;-71
2023/09/15 13:09:16;;;;;;;10.55;9.75;;;;;;;;;;4980259;28;20129;-72
2023/09/15 13:11:42;;;;;;;10.57;9.52;;;;;;;;;;4981513;28;20122;-71
2023/09/15 13:14:08;;;;;;;10.85;10.05;;;;;;;;;;4994835;28;20181;-70
2023/09/15 13:16:34;;;;;;;9.73;9.02;;;;;;;;;;4978426;28;20137;-70
2023/09/15 13:19:00;;;;;;;10.10;9.40;;;;;;;;;;4982520;28;20039;-72
2023/09/15 13:21:25;;;;;;;10.43;9.70;;;;;;;;;;4981223;28;20045;-72
2023/09/15 13:23:52;;;;;;;10.25;9.35;;;;;;;;;;4980573;28;20042;-72
2023/09/15 13:26:17;;;;;;;10.23;9.38;;;;;;;;;;4980106;28;20060;-72
2023/09/15 13:28:43;;;;;;;10.35;9.48;;;;;;;;;;4981496;28;20368;-71
2023/09/15 13:31:08;;;;;;;10.55;9.57;;;;;;;;;;4981296;28;20034;-70
2023/09/15 13:33:35;;;;;;;10.88;10.07;;;;;;;;;;4979818;28;20116;-71
2023/09/15 13:36:02;;;;;;;10.55;9.85;;;;;;;;;;4984623;28;20492;-73
2023/09/15 13:38:28;;;;;;;11.00;10.10;;;;;;;;;;4988770;28;20515;-71
2023/09/15 13:40:54;;;;;;;10.98;9.77;;;;;;;;;;5010001;28;20116;-71
2023/09/15 13:43:22;;;;;;;;;;;;;;;;;;4986231;28;20085;-70
2023/09/15 13:45:51;;;;;;;11.60;10.57;;;;;;;;;;4985074;28;19917;-71
2023/09/15 13:48:18;;;;;;;11.55;10.40;;;;;;;;;;4996672;28;20038;-70
2023/09/15 13:50:43;;;;;;;10.93;10.00;;;;;;;;;;4979016;28;20128;-71
2023/09/15 13:53:09;;;;;;;10.30;9.60;;;;;;;;;;4980690;28;20125;-70
2023/09/15 13:55:34;;;;;;;10.50;9.70;;;;;;;;;;4985327;28;20919;-71
2023/09/15 13:58:00;;;;;;;10.77;9.93;;;;;;;;;;4983783;28;20033;-71
2023/09/15 14:00:26;;;;;;;10.75;9.90;;;;;;;;;;4980024;28;20038;-72
2023/09/15 14:02:52;;;;;;;11.48;10.48;;;;;;;;;;4981973;28;20661;-73
2023/09/15 14:05:18;;;;;;;10.43;9.70;;;;;;;;;;4994658;28;20049;-72
2023/09/15 14:07:44;;;;;;;11.20;10.30;;;;;;;;;;4977608;28;20693;-72
2023/09/15 14:10:10;;;;;;;11.02;10.13;;;;;;;;;;4988671;28;20073;-74
2023/09/15 14:12:37;;;;;;;10.48;9.68;;;;;;;;;;4995453;28;20772;-73
2023/09/15 14:15:09;;;;;;;10.23;9.43;;;;;;;;;;4987832;28;20452;-74
2023/09/15 14:17:35;;;;;;;10.98;10.18;;;;;;;;;;4986380;28;20037;-71
2023/09/15 14:20:01;;;;;;;11.05;10.15;;;;;;;;;;4987934;28;20057;-70
2023/09/15 14:22:27;;;;;;;11.45;10.55;;;;;;;;;;4982223;28;20046;-71
2023/09/15 14:24:55;;;;;;;11.00;10.20;;;;;;;;;;4982406;28;20069;-72